AirNav   Everest Fuels
 
 1165 users online  

MN01 Hammars Farm Airport
Ada, Minnesota, USA

GOING TO ADA?


FAA INFORMATION EFFECTIVE 15 JULY 2021

Location

FAA Identifier: MN01
Lat/Long: 47-16-59.8850N 096-37-01.2600W
47-16.998083N 096-37.021000W
47.2833014,-96.6170167
(estimated)
Elevation: 886 ft. / 270 m (estimated)
Variation: 06E (1985)
From city: 4 miles SW of ADA, MN
Time zone: UTC -5 (UTC -6 during Standard Time)
Zip code: 56550

Airport Operations

Airport use: Private use. Permission required prior to landing
Activation date: 01/1961
Control tower: no
ARTCC: MINNEAPOLIS CENTER
FSS: PRINCETON FLIGHT SERVICE STATION
Attendance: UNATNDD
Wind indicator: no
Segmented circle: no

Nearby radio navigation aids

VOR radial/distance  VOR name  Freq  Var
FARr008/33.2FARGO VOR/DME116.2009E

Airport Services

Airframe service: NONE
Powerplant service: NONE

Runway Information

Runway N/S

Dimensions: 2500 x 75 ft. / 762 x 23 m
Surface: turf
RUNWAY N  RUNWAY S
Traffic pattern: leftleft

Airport Ownership and Management from official FAA records

Ownership: Privately-owned
Owner: FAY HAMMARBACK
1893 220 ST
HENDRUM, MN 56550
Phone 218-784-4826
Manager: FAY HAMMARBACK
1893 220 ST
HENDRUM, MN 56550
Phone 218-784-4826

Additional Remarks

FOR CD CTC MINNEAPOLIS ARTCC AT 651-463-5588.

Instrument Procedures

There are no published instrument procedures at MN01.

Some nearby airports with instrument procedures:

D00 - Norman County Ada/Twin Valley Airport (9 nm E)
3H4 - Hillsboro Municipal Airport (19 nm W)
KFAR - Hector International Airport (23 nm S)
04Y - Hawley Municipal Airport (26 nm SE)
KJKJ - Moorhead Municipal Airport (27 nm S)
 
Loc | Ops | Rwys | IFR | FBO | Links
Com | Nav | Svcs | Stats | Notes
Area around MN01 (Hammars Farm Airport)
 
Road maps at: MapQuest Bing Google
 
Aerial photo
No photo
 
Sectional chart

 
Airport distance calculator
Flying to Hammars Farm Airport? Find the distance to fly.

From to MN01

Sunrise and sunset
Times for 28-Jul-2021
 Local
(UTC-5)
 Zulu
(UTC)
Morning civil twilight05:2510:25
Sunrise06:0111:01
Sunset21:0502:05
Evening civil twilight21:4102:41

Current date and time
Zulu (UTC)  28-Jul-2021 23:46:30
Local (UTC-5)  28-Jul-2021 18:46:30
 
METAR
KFAR 
23nm S 
282253Z 34016G23KT 10SM FEW019 OVC028 28/22 A2989 RMK AO2 SLP115 T02780222
KJKJ 
27nm S 
282335Z AUTO 34013G20KT 7SM CLR 28/21 A2990 RMK AO2
K3N8 
28nm E 
282335Z AUTO 33013KT 10SM BKN048 28/24 A2989 RMK AO2 T02800235
KCKN 
34nm N 
282335Z AUTO 01016G24KT 10SM CLR 29/14 A2990 RMK AO2
KDTL 
42nm SE 
282335Z AUTO 32009G19KT 10SM BKN030 29/24 A2988 RMK AO2
TAF
KFAR 
23nm S 
282145Z 2822/2918 35015G23KT P6SM SCT019 BKN150 TEMPO 2822/2824 BKN019 FM290300 01010KT P6SM FEW250 FM291600 36010G18KT P6SM FEW250
NOTAMs
Click for the latest NOTAMs
NOTAMs are issued by the DoD/FAA and will open in a separate window not controlled by AirNav.

 

 
 

Would you like to see your business listed on this page?

 If your business provides an interesting product or service to pilots, flight crews, aircraft, or users of the Hammars Farm Airport, you should consider listing it here.  To start the listing process, click on the button below
 
Add a business
 

Other Pages about Hammars Farm Airport

Update a link
 
Copyright © AirNav, LLC. All rights reserved. Privacy Policy  Contact